createdAt,value
2018-10-19T06:39:31.308Z,2.77
2018-10-19T06:41:59.534Z,2.83
2018-10-19T06:44:27.778Z,4.20
2018-10-19T06:46:56.072Z,3.40
2018-10-19T06:49:24.276Z,3.83
2018-10-19T06:51:52.504Z,3.93
2018-10-19T06:54:20.756Z,3.13
2018-10-19T06:56:48.984Z,3.43
2018-10-19T06:59:17.280Z,3.00
2018-10-19T07:01:46.288Z,3.53
2018-10-19T07:04:14.516Z,3.43
2018-10-19T07:06:42.791Z,3.57
2018-10-19T07:09:11.008Z,3.23
2018-10-19T07:11:39.269Z,3.93
2018-10-19T07:14:07.545Z,3.17
2018-10-19T07:16:35.772Z,3.00
2018-10-19T07:19:04.052Z,3.13
2018-10-19T07:21:32.298Z,3.83
2018-10-19T07:24:00.512Z,3.63
2018-10-19T07:26:28.779Z,3.40
2018-10-19T07:28:57.050Z,3.70
2018-10-19T07:31:25.292Z,3.13
2018-10-19T07:33:54.359Z,3.17
2018-10-19T07:36:22.895Z,2.90
2018-10-19T07:38:51.095Z,3.40
2018-10-19T07:41:19.336Z,2.70
2018-10-19T07:43:47.556Z,3.50
2018-10-19T07:46:15.823Z,2.90
2018-10-19T07:48:44.060Z,3.30
2018-10-19T07:51:12.320Z,3.30
2018-10-19T07:53:40.548Z,3.47
2018-10-19T07:56:08.870Z,3.00
2018-10-19T07:58:37.079Z,2.97
2018-10-19T08:01:05.374Z,4.20
2018-10-19T08:03:33.576Z,3.30
2018-10-19T08:06:01.884Z,3.00
2018-10-19T08:08:30.124Z,2.87
2018-10-19T08:10:58.402Z,3.30
2018-10-19T08:13:26.610Z,3.27
2018-10-19T08:15:54.859Z,3.27
2018-10-19T08:18:23.107Z,3.30
2018-10-19T08:20:51.348Z,6.47
2018-10-19T08:23:19.576Z,3.40
2018-10-19T08:25:47.824Z,4.63
2018-10-19T08:28:16.044Z,3.63
2018-10-19T08:30:44.284Z,2.97
2018-10-19T08:33:12.529Z,3.33
2018-10-19T08:35:40.784Z,3.47
2018-10-19T08:38:09.021Z,3.50
2018-10-19T08:40:37.264Z,8.67
2018-10-19T08:43:06.129Z,3.70
2018-10-19T08:45:34.306Z,4.60
2018-10-19T08:48:02.536Z,3.63
2018-10-19T08:50:30.760Z,3.67
2018-10-19T08:52:59.036Z,4.00
2018-10-19T08:55:27.275Z,3.57
2018-10-19T08:57:55.594Z,3.10
2018-10-19T09:00:23.791Z,3.37
2018-10-19T09:02:52.026Z,3.43
2018-10-19T09:05:20.257Z,3.37
2018-10-19T09:07:48.489Z,3.40
2018-10-19T09:10:16.715Z,3.63
2018-10-19T09:12:45.053Z,2.87
2018-10-19T09:15:13.299Z,3.07
2018-10-19T09:17:41.475Z,3.20
2018-10-19T09:20:09.703Z,3.70
2018-10-19T09:22:37.944Z,3.17
2018-10-19T09:25:06.201Z,3.73
2018-10-19T09:27:34.451Z,2.90
2018-10-19T09:30:02.687Z,3.17
2018-10-19T09:32:30.945Z,3.70
2018-10-19T09:34:59.239Z,3.43
2018-10-19T09:37:27.445Z,3.80
2018-10-19T09:39:55.667Z,3.20
2018-10-19T09:42:23.902Z,4.77
2018-10-19T09:44:52.122Z,3.83
2018-10-19T09:47:20.374Z,3.47
2018-10-19T09:49:48.610Z,3.03
2018-10-19T09:52:16.880Z,3.47
2018-10-19T09:54:45.103Z,3.20
2018-10-19T09:57:13.474Z,3.20
2018-10-19T09:59:41.639Z,3.80
2018-10-19T10:02:09.959Z,3.70
2018-10-19T10:04:38.129Z,3.03
2018-10-19T10:07:06.431Z,4.23
2018-10-19T10:09:34.644Z,4.00
2018-10-19T10:12:02.880Z,3.73
2018-10-19T10:14:32.136Z,3.07
2018-10-19T10:17:00.384Z,3.73
2018-10-19T10:19:28.632Z,3.77
2018-10-19T10:21:56.875Z,3.60
2018-10-19T10:24:25.112Z,3.77
2018-10-19T10:26:53.361Z,3.37
2018-10-19T10:29:21.591Z,6.13
2018-10-19T10:31:49.848Z,2.90
2018-10-19T10:34:18.195Z,3.80
2018-10-19T10:36:46.312Z,3.27
2018-10-19T10:39:14.949Z,3.57
2018-10-19T10:41:43.045Z,3.93
2018-10-19T10:44:11.292Z,4.03
2018-10-19T10:46:39.524Z,3.17
2018-10-19T10:49:07.820Z,3.80
2018-10-19T10:51:36.060Z,3.97
2018-10-19T10:54:04.401Z,5.93
2018-10-19T10:56:32.661Z,3.20
2018-10-19T10:59:00.909Z,4.00
2018-10-19T11:01:29.127Z,4.10
2018-10-19T11:03:57.377Z,3.83
2018-10-19T11:06:25.647Z,4.87
2018-10-19T11:08:53.892Z,3.50
2018-10-19T11:11:22.122Z,4.27
2018-10-19T11:13:50.360Z,3.60
2018-10-19T11:16:18.580Z,3.73
2018-10-19T11:18:46.819Z,3.43
2018-10-19T11:21:15.045Z,3.00
2018-10-19T11:23:43.292Z,3.57
2018-10-19T11:26:11.507Z,3.27
2018-10-19T11:28:39.795Z,3.90
2018-10-19T11:31:08.078Z,3.57
2018-10-19T11:33:36.292Z,3.17
2018-10-19T11:36:04.521Z,3.30
2018-10-19T11:38:32.804Z,2.83
2018-10-19T11:41:01.024Z,3.40
2018-10-19T11:43:29.268Z,3.27
2018-10-19T11:45:57.524Z,3.67
2018-10-19T11:48:25.768Z,3.30
2018-10-19T11:50:54.000Z,4.07
2018-10-19T11:53:22.236Z,3.57
2018-10-19T11:55:50.463Z,3.57
2018-10-19T11:58:18.812Z,3.60
2018-10-19T12:00:46.963Z,4.27
2018-10-19T12:03:15.212Z,3.93
2018-10-19T12:05:43.434Z,4.17
2018-10-19T12:08:11.691Z,4.20
2018-10-19T12:10:40.035Z,4.40
2018-10-19T12:13:08.214Z,3.17
2018-10-19T12:15:36.426Z,4.27
2018-10-19T12:18:04.728Z,3.43
2018-10-19T12:20:32.963Z,3.93
2018-10-19T12:23:01.187Z,3.43
2018-10-19T12:25:29.431Z,3.33
2018-10-19T12:27:57.651Z,3.37
2018-10-19T12:30:25.899Z,3.20
2018-10-19T12:32:54.265Z,3.00
2018-10-19T12:35:22.565Z,3.10
2018-10-19T12:37:50.764Z,3.47
2018-10-19T12:40:18.995Z,2.90
2018-10-19T12:42:47.223Z,3.43
2018-10-19T12:46:35.204Z,2.70
2018-10-19T12:49:03.503Z,2.87
2018-10-19T12:51:31.681Z,3.70
2018-10-19T12:53:59.989Z,3.20
2018-10-19T12:56:28.203Z,3.07
2018-10-19T12:58:56.795Z,2.83
2018-10-19T13:01:26.367Z,3.40
2018-10-19T13:03:54.617Z,3.23
2018-10-19T13:06:22.857Z,2.60
2018-10-19T13:08:51.532Z,2.83
2018-10-19T13:11:19.763Z,2.73
2018-10-19T13:13:47.985Z,3.10
2018-10-19T13:16:16.275Z,3.03
2018-10-19T13:18:44.464Z,4.30
2018-10-19T13:21:12.780Z,3.47
2018-10-19T13:23:40.992Z,3.17
2018-10-19T13:26:09.236Z,2.47
2018-10-19T13:28:37.455Z,3.60
2018-10-19T13:31:05.824Z,2.60
2018-10-19T13:33:34.042Z,3.23
2018-10-19T13:36:02.312Z,3.10
2018-10-19T13:38:30.540Z,2.93
2018-10-19T13:40:58.787Z,2.80
2018-10-19T13:43:27.024Z,2.27
2018-10-19T13:45:55.304Z,2.80
2018-10-19T13:48:23.732Z,2.33
2018-10-19T13:50:51.965Z,2.43
2018-10-19T13:53:20.200Z,2.43
2018-10-19T13:55:48.452Z,3.13
2018-10-19T13:58:16.953Z,2.33
2018-10-19T14:00:45.216Z,2.87
2018-10-19T14:03:13.507Z,2.30
2018-10-19T14:05:41.992Z,3.20
2018-10-19T14:08:09.987Z,2.77
2018-10-19T14:10:38.248Z,3.13
2018-10-19T14:13:06.696Z,3.23
2018-10-19T14:15:34.939Z,3.07
2018-10-19T14:18:03.564Z,2.30
2018-10-19T14:20:31.843Z,2.70
2018-10-19T14:23:00.116Z,2.73
2018-10-19T14:25:28.332Z,2.40
2018-10-19T14:27:56.548Z,2.20
2018-10-19T14:30:24.796Z,2.20
2018-10-19T14:32:53.152Z,2.80
2018-10-19T14:35:21.381Z,2.07
2018-10-19T14:37:49.631Z,2.10
2018-10-19T14:40:19.184Z,2.40
2018-10-19T14:42:47.788Z,2.03
2018-10-19T14:45:16.669Z,2.73
2018-10-19T14:47:45.648Z,2.50
2018-10-19T14:50:15.156Z,2.47
2018-10-19T14:52:43.391Z,2.03
2018-10-19T14:55:13.451Z,2.20
2018-10-19T14:57:41.680Z,1.97
2018-10-19T15:00:12.092Z,2.83
2018-10-19T15:02:40.365Z,2.13
2018-10-19T15:05:09.803Z,1.83
2018-10-19T15:07:38.288Z,2.10
2018-10-19T15:10:08.792Z,2.23
2018-10-19T15:12:36.921Z,2.37
2018-10-19T15:15:05.501Z,2.27
2018-10-19T15:17:33.732Z,2.10
2018-10-19T15:20:02.132Z,2.73
2018-10-19T15:22:30.374Z,2.30
2018-10-19T15:24:58.840Z,2.17
2018-10-19T15:27:27.076Z,3.03
2018-10-19T15:29:55.326Z,2.00
2018-10-19T15:32:23.577Z,2.10
2018-10-19T15:34:51.830Z,2.40
2018-10-19T15:37:20.072Z,2.27
2018-10-19T15:39:48.299Z,2.13
2018-10-19T15:42:16.552Z,3.93
2018-10-19T15:44:44.837Z,3.17
2018-10-19T15:47:13.116Z,2.27
2018-10-19T15:49:41.400Z,2.00
2018-10-19T15:52:09.632Z,2.13
2018-10-19T15:54:37.892Z,2.03
2018-10-19T15:57:06.419Z,2.20
2018-10-19T15:59:34.668Z,2.60
2018-10-19T16:02:02.917Z,2.37
2018-10-19T16:04:31.157Z,2.13
2018-10-19T16:06:59.400Z,1.93
2018-10-19T16:09:27.626Z,2.00
2018-10-19T16:11:55.871Z,2.53
2018-10-19T16:14:24.108Z,2.13
2018-10-19T16:16:52.344Z,2.60
2018-10-19T16:19:20.685Z,2.10
2018-10-19T16:21:48.920Z,2.30
2018-10-19T16:24:17.156Z,2.83
2018-10-19T16:26:45.409Z,2.20
2018-10-19T16:29:13.627Z,2.40
2018-10-19T16:31:41.873Z,2.70
2018-10-19T16:34:10.104Z,2.13
2018-10-19T16:36:38.347Z,1.87
2018-10-19T16:39:07.278Z,2.27
2018-10-19T16:41:35.520Z,1.97
2018-10-19T16:44:03.775Z,2.53
2018-10-19T16:46:31.996Z,2.13
2018-10-19T16:49:00.243Z,2.20
2018-10-19T16:51:28.444Z,1.70
2018-10-19T16:53:56.725Z,2.30
2018-10-19T16:56:24.924Z,2.47
2018-10-19T16:58:53.149Z,3.87
2018-10-19T17:01:21.407Z,7.20
2018-10-19T17:03:49.828Z,8.73
2018-10-19T17:06:18.095Z,11.67
2018-10-19T17:08:46.328Z,11.67
2018-10-19T17:11:14.556Z,10.87
2018-10-19T17:13:42.804Z,10.27
2018-10-19T17:16:11.020Z,9.10
2018-10-19T17:18:39.244Z,6.70
2018-10-19T17:21:07.519Z,5.40
2018-10-19T17:23:35.733Z,4.10
2018-10-19T17:26:04.004Z,3.63
2018-10-19T17:28:32.319Z,2.50
2018-10-19T17:31:00.657Z,2.63
2018-10-19T17:33:28.954Z,2.77
2018-10-19T17:35:57.072Z,2.83
2018-10-19T17:38:25.329Z,2.63
2018-10-19T17:40:53.551Z,3.00
2018-10-19T17:43:21.933Z,2.97
2018-10-19T17:45:50.110Z,2.47
2018-10-19T17:48:18.470Z,2.30
2018-10-19T17:50:46.598Z,2.50
2018-10-19T17:53:14.897Z,2.60
2018-10-19T17:55:43.057Z,3.13
2018-10-19T17:58:11.300Z,2.60
2018-10-19T18:00:39.575Z,2.73
2018-10-19T18:03:07.847Z,2.27
2018-10-19T18:05:36.036Z,2.77
2018-10-19T18:08:04.304Z,2.63
2018-10-19T18:10:32.524Z,2.87
2018-10-19T18:13:00.764Z,2.30
2018-10-19T18:15:29.035Z,2.30
2018-10-19T18:17:57.249Z,2.60
2018-10-19T18:20:25.444Z,2.70
2018-10-19T18:22:53.745Z,2.70
2018-10-19T18:25:21.936Z,2.63
2018-10-19T18:27:50.181Z,3.60
2018-10-19T18:30:18.400Z,3.60
2018-10-19T18:32:46.712Z,4.67
2018-10-19T18:35:14.928Z,4.70
2018-10-19T18:37:43.161Z,4.77
2018-10-19T18:40:12.142Z,4.60
2018-10-19T18:42:40.358Z,4.83
2018-10-19T18:45:09.303Z,3.97
2018-10-19T18:47:37.860Z,4.00
2018-10-19T18:50:06.668Z,3.97
2018-10-19T18:52:34.848Z,3.73
2018-10-19T18:55:03.107Z,3.87
2018-10-19T18:57:31.320Z,4.50
2018-10-19T18:59:59.560Z,4.17
2018-10-19T19:02:27.783Z,4.23
2018-10-19T19:04:56.331Z,3.73
2018-10-19T19:07:24.617Z,4.00
2018-10-19T19:09:58.339Z,3.00
2018-10-19T19:12:26.559Z,3.50
2018-10-19T19:14:54.793Z,3.63
2018-10-19T19:17:23.008Z,2.90
2018-10-19T19:19:56.638Z,4.10
2018-10-19T19:22:24.816Z,2.60
2018-10-19T19:24:58.416Z,2.87
2018-10-19T19:27:26.632Z,2.70
2018-10-19T19:29:54.869Z,3.30
2018-10-19T19:32:23.076Z,3.20
2018-10-19T19:34:51.311Z,3.77
2018-10-19T19:37:19.537Z,5.57
2018-10-19T19:39:47.782Z,7.37
2018-10-19T19:42:21.469Z,23.60
2018-10-19T19:44:49.715Z,13.90
2018-10-19T19:48:22.290Z,9.37
2018-10-19T19:50:50.526Z,5.00
2018-10-19T19:53:18.735Z,4.87
2018-10-19T19:55:46.979Z,4.00
2018-10-19T19:58:15.224Z,3.53
2018-10-19T20:00:43.455Z,3.73
2018-10-19T20:03:11.695Z,3.17
2018-10-19T20:05:39.925Z,3.13
2018-10-19T20:08:08.215Z,2.97
2018-10-19T20:10:36.408Z,3.83
2018-10-19T20:13:04.847Z,4.63
2018-10-19T20:15:33.088Z,6.00
2018-10-19T20:18:01.308Z,6.10
2018-10-19T20:20:29.558Z,6.00
2018-10-19T20:22:57.818Z,5.17
2018-10-19T20:25:26.059Z,4.67
2018-10-19T20:27:54.294Z,4.27
2018-10-19T20:30:22.532Z,3.47
2018-10-19T20:32:50.776Z,4.40
2018-10-19T20:35:19.244Z,3.47
2018-10-19T20:37:47.479Z,4.10
2018-10-19T20:40:15.728Z,3.97
2018-10-19T20:42:43.957Z,3.50
2018-10-19T20:45:12.199Z,3.73
2018-10-19T20:47:40.424Z,3.57
2018-10-19T20:50:08.697Z,3.30
2018-10-19T20:52:36.892Z,3.47
2018-10-19T20:55:05.739Z,3.50
2018-10-19T20:57:33.939Z,3.80
2018-10-19T21:00:02.177Z,3.77
2018-10-19T21:02:30.395Z,3.43
2018-10-19T21:04:58.645Z,3.63
2018-10-19T21:07:26.909Z,3.97
2018-10-19T21:09:55.104Z,3.10
2018-10-19T21:12:23.344Z,4.83
2018-10-19T21:14:51.564Z,4.17
2018-10-19T21:17:19.794Z,2.77
2018-10-19T21:19:48.020Z,3.33
2018-10-19T21:22:16.262Z,3.43
2018-10-19T21:24:44.530Z,3.67
2018-10-19T21:27:12.799Z,3.10
2018-10-19T21:29:41.055Z,3.20
2018-10-19T21:32:09.535Z,3.77
2018-10-19T21:34:37.793Z,3.63
2018-10-19T21:37:06.036Z,3.57
2018-10-19T21:39:34.299Z,3.40
2018-10-19T21:42:02.539Z,3.80
2018-10-19T21:44:30.769Z,8.13
2018-10-19T21:46:59.023Z,8.63
2018-10-19T21:49:27.260Z,6.73
2018-10-19T21:51:55.503Z,4.40
2018-10-19T21:54:23.734Z,4.70
2018-10-19T21:56:51.968Z,3.70
2018-10-19T21:59:20.195Z,3.50
2018-10-19T22:01:48.500Z,3.43
2018-10-19T22:04:16.734Z,2.90
2018-10-19T22:06:44.979Z,2.73
2018-10-19T22:09:13.759Z,3.03
2018-10-19T22:11:42.362Z,3.37
2018-10-19T22:14:10.942Z,3.47
2018-10-19T22:16:39.931Z,3.50
2018-10-19T22:19:09.133Z,4.13
2018-10-19T22:21:37.331Z,3.47
2018-10-19T22:24:06.364Z,3.23
2018-10-19T22:26:34.604Z,3.33
2018-10-19T22:29:02.827Z,5.47
2018-10-19T22:31:31.124Z,3.50
2018-10-19T22:33:59.336Z,3.63
2018-10-19T22:36:27.580Z,3.97
2018-10-19T22:38:55.808Z,3.80
2018-10-19T22:41:24.063Z,4.53
2018-10-19T22:43:52.284Z,4.03
